Strona główna
METAR-TAF:

METAR-TAF

Lotnisko :

Valley, Walia

Szerokość geograficzna: 53-15N, Długość geograficzna: 004-32W, wysokość: 1 m

Aktualna obserwacja pogody

Raport powstał 55 minut temu, godzina 05:50 UTC
Wiatr 17 kt od zachodnio-południowy zachód
Temperatura 6°C
Wilgotność 81%
Ciśnienie 1004 hPa
Widzialność 10 km lub więcej

METAR: EGOV 290550Z AUTO 25017KT 9999 FEW020/// BKN023/// BKN047/// 06/03 Q1004

czas: 06:45 (06:45 UTC)

Prognoza

Raport powstał 13 godziny i 53 minut temu, godzina 16:52 UTC
Prognoza ważna od 28 godzina 18 UTC do 28 godzina 21 UTC
Wiatr 20 kt od zachód
Widzialność 10 km lub więcej
Mało chmury na wysokości 2100 ft
Rozproszone chmury na wysokości 2500 ft
Przejściowo
od 28 godzina 18 UTC do 28 godzina 21 UTC
Wiatr 20 kt od zachód w porywach dochodzący do 30 kt
Rozproszone chmury na wysokości 2100 ft

TAF: EGOV 281652Z 2818/2821 27020KT 9999 FEW021 SCT025 TEMPO 2818/2821 27020G30KT SCT021

Obserwacja i prognoza pogody dla ponad 4000 lotnisk (raport METAR i TAF).

Dostępne stacje oznaczono żółtymi i czerwonymi punktami na mapie.

Najedź kursorem aby zobaczyć nazwę stacji.

Kliknij aby zobaczyć obserwacje i prognozy pogody.

Aby zmienić mapę: kliknij na zielony przycisk z czarnym krzyżykiem, aby powiększyć; na zielony przycisk z myślnikiem, aby pomniejszyć; na zielone strzałki, aby przejść do map sąsiednich.


METAR-TAF: